Time;durP1;ratioP1;P1;durP2;ratioP2;P2;SDS_P1;SDS_P2;PMS_P1;PMS_P2;Temp;Humidity;BMP_temperature;BMP_pressure;BME280_temperature;BME280_humidity;BME280_pressure;Samples;Min_cycle;Max_cycle;Signal;HPM_P1;HPM_P2
2021/04/15 00:00:54;;;;;;;11.27;1.25;;;28.60;38.60;;;;;;5007780;28;20058;-74
2021/04/15 00:03:25;;;;;;;2.45;1.20;;;28.90;40.10;;;;;;4999782;28;20029;-71
2021/04/15 00:05:54;;;;;;;4.63;1.70;;;28.90;36.90;;;;;;5002989;28;20595;-76
2021/04/15 00:08:22;;;;;;;4.22;1.33;;;28.40;38.80;;;;;;5008488;28;20037;-75
2021/04/15 00:10:53;;;;;;;6.35;1.10;;;28.20;37.70;;;;;;5004134;28;20113;-74
2021/04/15 00:13:44;;;;;;;2.70;0.90;;;27.90;40.20;;;;;;5004919;28;20065;-73
2021/04/15 00:16:13;;;;;;;4.20;1.40;;;28.60;42.70;;;;;;5002885;28;20028;-74
2021/04/15 00:18:41;;;;;;;4.10;1.83;;;29.30;37.10;;;;;;5004437;28;20040;-70
2021/04/15 00:21:10;;;;;;;5.70;1.30;;;29.40;37.10;;;;;;5002671;28;20445;-78
2021/04/15 00:23:37;;;;;;;13.93;2.35;;;29.30;35.60;;;;;;5001926;28;20021;-73
2021/04/15 00:26:07;;;;;;;5.75;1.23;;;28.80;36.60;;;;;;5001989;28;20065;-72
2021/04/15 00:28:35;;;;;;;2.78;1.48;;;29.10;36.50;;;;;;5004565;28;20053;-71
2021/04/15 00:31:04;;;;;;;6.25;1.67;;;29.80;37.60;;;;;;5007186;28;20392;-70
2021/04/15 00:33:31;;;;;;;7.60;2.45;;;30.30;36.60;;;;;;5009910;28;20034;-72
2021/04/15 00:35:59;;;;;;;7.32;1.65;;;30.40;38.10;;;;;;5007308;28;20068;-74
2021/04/15 00:38:28;;;;;;;5.85;1.20;;;30.70;35.00;;;;;;5003349;28;20018;-70
2021/04/15 00:40:57;;;;;;;6.25;1.17;;;30.70;35.80;;;;;;5003390;28;20034;-73
2021/04/15 00:43:31;;;;;;;6.10;1.60;;;30.70;35.00;;;;;;5003231;28;20020;-74
2021/04/15 00:46:01;;;;;;;3.88;0.98;;;30.10;36.60;;;;;;5006484;28;20034;-70
2021/04/15 00:48:41;;;;;;;5.90;1.23;;;29.60;33.30;;;;;;5004403;28;20033;-80
2021/04/15 00:51:19;;;;;;;5.97;1.38;;;29.20;36.50;;;;;;5000858;28;20026;-71
2021/04/15 00:53:57;;;;;;;4.10;1.08;;;29.10;35.60;;;;;;5003963;28;20026;-69
2021/04/15 00:56:28;;;;;;;4.75;1.70;;;29.00;33.80;;;;;;5005695;28;20064;-79
2021/04/15 00:58:56;;;;;;;3.65;1.15;;;28.70;34.50;;;;;;5000558;28;20037;-75
2021/04/15 01:01:26;;;;;;;4.30;1.48;;;29.30;37.40;;;;;;5001892;28;20136;-71
2021/04/15 01:03:53;;;;;;;3.65;1.10;;;29.60;34.50;;;;;;5001342;28;20022;-83
2021/04/15 01:06:21;;;;;;;2.85;1.00;;;29.60;35.40;;;;;;5002663;28;20038;-73
2021/04/15 01:08:48;;;;;;;6.20;1.00;;;29.50;34.70;;;;;;5002672;28;20484;-68
2021/04/15 01:11:35;;;;;;;4.25;1.00;;;29.30;34.40;;;;;;5000271;28;20630;-68
2021/04/15 01:14:02;;;;;;;5.10;1.05;;;29.70;34.60;;;;;;5001987;28;20132;-75
2021/04/15 01:16:47;;;;;;;7.72;1.52;;;30.30;33.90;;;;;;5002884;28;20036;-71
2021/04/15 01:19:35;;;;;;;4.82;1.50;;;31.30;33.90;;;;;;5001095;28;20038;-74
2021/04/15 01:22:27;;;;;;;7.05;1.40;;;31.40;33.20;;;;;;5000223;28;20053;-77
2021/04/15 01:25:24;;;;;;;4.68;1.27;;;31.50;31.90;;;;;;5001519;28;20026;-80
2021/04/15 01:27:55;;;;;;;4.13;0.90;;;31.10;32.30;;;;;;4969168;28;20117;-78
2021/04/15 01:30:31;;;;;;;6.40;1.02;;;30.40;32.50;;;;;;5000725;28;20038;-76
2021/04/15 01:33:07;;;;;;;9.50;1.40;;;30.10;33.30;;;;;;5002193;28;20112;-77
2021/04/15 01:36:23;;;;;;;3.60;0.82;;;29.90;34.60;;;;;;5001895;28;20051;-74
2021/04/15 01:39:20;;;;;;;3.67;0.80;;;29.50;34.00;;;;;;4959685;28;20030;-71
2021/04/15 01:41:58;;;;;;;3.15;0.85;;;30.20;36.20;;;;;;5004991;28;20042;-77
2021/04/15 01:45:05;;;;;;;4.80;1.00;;;31.30;35.10;;;;;;5003173;28;20575;-77
2021/04/15 01:48:10;;;;;;;5.20;1.23;;;30.70;32.80;;;;;;5001109;28;20025;-73
2021/04/15 01:50:51;;;;;;;6.97;1.17;;;30.40;31.60;;;;;;4977100;28;20048;-75
2021/04/15 01:53:33;;;;;;;4.70;0.90;;;30.60;33.30;;;;;;4999924;28;20441;-74
2021/04/15 01:56:31;;;;;;;4.53;0.80;;;31.20;34.80;;;;;;5001459;28;20379;-73
2021/04/15 01:59:23;;;;;;;5.43;1.05;;;31.70;31.20;;;;;;4987951;28;20057;-78
2021/04/15 02:01:55;;;;;;;3.67;0.80;;;30.80;31.00;;;;;;4998514;28;20058;-72
2021/04/15 02:04:32;;;;;;;7.22;1.00;;;29.50;34.30;;;;;;5000807;28;20033;-71
2021/04/15 02:07:09;;;;;;;4.00;1.33;;;29.10;34.40;;;;;;5001376;28;20018;-72
2021/04/15 02:09:39;;;;;;;5.20;1.20;;;29.30;34.70;;;;;;5000891;28;20030;-74
2021/04/15 02:12:13;;;;;;;5.95;0.80;;;29.40;34.30;;;;;;5003997;28;20029;-71
2021/04/15 02:14:44;;;;;;;7.65;1.30;;;29.50;34.40;;;;;;5000189;28;20050;-72
2021/04/15 02:17:13;;;;;;;10.00;0.98;;;29.60;33.80;;;;;;5003081;28;20503;-73
2021/04/15 02:19:55;;;;;;;2.95;0.73;;;30.10;33.40;;;;;;5005040;28;20029;-74
2021/04/15 02:22:30;;;;;;;4.53;0.93;;;30.60;33.70;;;;;;4999050;28;20038;-74
2021/04/15 02:25:04;;;;;;;5.40;1.20;;;31.60;34.80;;;;;;5001604;28;20948;-69
2021/04/15 02:28:15;;;;;;;7.18;1.73;;;31.80;31.80;;;;;;4998063;28;20081;-74
2021/04/15 02:31:01;;;;;;;6.38;0.73;;;32.40;36.60;;;;;;5002258;28;20034;-74
2021/04/15 02:34:08;;;;;;;4.63;1.02;;;32.60;32.40;;;;;;5016386;28;20022;-76
2021/04/15 02:36:46;;;;;;;6.82;1.23;;;32.70;31.20;;;;;;4987184;28;20073;-72
2021/04/15 02:39:27;;;;;;;3.42;0.80;;;31.50;31.10;;;;;;5001473;28;20544;-74
2021/04/15 02:41:55;;;;;;;6.03;0.93;;;31.50;35.40;;;;;;5000484;28;20038;-71
2021/04/15 02:44:29;;;;;;;2.40;0.82;;;31.20;33.10;;;;;;5000670;28;20105;-69
2021/04/15 02:47:07;;;;;;;6.22;0.80;;;31.20;33.50;;;;;;5005330;28;20091;-71
2021/04/15 02:49:36;;;;;;;5.90;1.05;;;31.10;32.10;;;;;;5004209;28;20124;-74
2021/04/15 02:52:22;;;;;;;2.45;0.70;;;31.80;30.10;;;;;;5004559;28;20041;-69
2021/04/15 02:55:05;;;;;;;4.50;0.90;;;31.90;34.00;;;;;;4992519;28;20121;-71
2021/04/15 02:57:58;;;;;;;3.28;0.80;;;32.10;32.30;;;;;;5001026;28;20125;-73
2021/04/15 03:00:34;;;;;;;4.68;1.02;;;32.60;34.00;;;;;;5001419;28;20061;-72
2021/04/15 03:03:09;;;;;;;3.75;0.68;;;32.40;30.00;;;;;;5000074;28;20053;-73
2021/04/15 03:05:49;;;;;;;6.82;0.82;;;32.60;31.10;;;;;;5000721;28;20134;-73
2021/04/15 03:08:23;;;;;;;6.45;0.75;;;32.20;34.60;;;;;;5005354;28;20037;-69
2021/04/15 03:11:02;;;;;;;2.65;0.70;;;31.20;31.40;;;;;;5007295;28;20123;-74
2021/04/15 03:13:43;;;;;;;4.60;1.30;;;30.90;33.60;;;;;;5008639;28;20048;-73
2021/04/15 03:16:11;;;;;;;8.00;1.55;;;30.20;31.70;;;;;;5006941;28;20117;-76
2021/04/15 03:18:44;;;;;;;5.65;1.15;;;30.00;35.40;;;;;;5004360;28;20128;-73
2021/04/15 03:21:39;;;;;;;4.60;0.82;;;29.80;33.70;;;;;;4999929;28;20073;-73
2021/04/15 03:24:21;;;;;;;3.08;0.85;;;29.40;32.80;;;;;;5016767;28;20046;-74
2021/04/15 03:26:55;;;;;;;4.20;1.55;;;30.50;34.40;;;;;;4997431;28;20022;-70
2021/04/15 03:29:41;;;;;;;2.47;0.70;;;31.20;33.10;;;;;;5003144;28;20034;-69
2021/04/15 03:32:27;;;;;;;3.17;0.70;;;31.20;33.20;;;;;;5005233;28;20049;-73
2021/04/15 03:35:03;;;;;;;4.72;1.05;;;31.60;33.20;;;;;;5007408;28;20052;-71
2021/04/15 03:37:39;;;;;;;3.40;0.85;;;31.40;32.60;;;;;;5003402;28;20019;-72
2021/04/15 03:40:12;;;;;;;4.70;0.95;;;31.40;32.20;;;;;;5009766;28;20049;-74
2021/04/15 03:42:49;;;;;;;4.65;0.60;;;31.50;34.00;;;;;;5008472;28;20030;-75
2021/04/15 03:45:25;;;;;;;1.75;0.70;;;31.80;33.90;;;;;;5005314;28;20026;-71
2021/04/15 03:47:59;;;;;;;4.53;1.05;;;31.70;34.60;;;;;;5006203;28;20026;-71
2021/04/15 03:50:42;;;;;;;4.20;1.38;;;31.80;34.30;;;;;;5006828;28;20041;-69
2021/04/15 03:53:12;;;;;;;6.18;0.80;;;31.70;35.10;;;;;;5005463;28;20519;-72
2021/04/15 03:55:47;;;;;;;2.83;0.65;;;31.70;31.10;;;;;;5004708;28;20061;-70
2021/04/15 03:58:18;;;;;;;5.75;0.60;;;31.60;32.10;;;;;;5007547;28;20030;-77
2021/04/15 04:01:12;;;;;;;2.63;0.77;;;31.00;30.50;;;;;;5002185;28;20125;-72
2021/04/15 04:03:42;;;;;;;7.07;1.20;;;30.80;33.70;;;;;;5005774;28;20052;-72
2021/04/15 04:06:22;;;;;;;4.43;0.65;;;30.60;32.10;;;;;;5005284;28;20022;-74
2021/04/15 04:09:00;;;;;;;2.70;0.90;;;30.10;31.90;;;;;;5004847;28;20205;-72
2021/04/15 04:11:34;;;;;;;6.82;1.55;;;30.00;33.40;;;;;;5000345;28;20342;-73
2021/04/15 04:14:08;;;;;;;6.45;0.95;;;29.90;33.30;;;;;;5006429;28;20145;-75
2021/04/15 04:16:49;;;;;;;3.25;0.82;;;30.00;33.40;;;;;;5002986;28;21123;-73
2021/04/15 04:19:45;;;;;;;5.78;0.95;;;29.90;34.40;;;;;;5005202;28;20030;-72
2021/04/15 04:22:46;;;;;;;3.85;0.90;;;30.00;32.60;;;;;;4988838;28;20054;-71
2021/04/15 04:25:31;;;;;;;4.20;1.10;;;29.90;33.40;;;;;;5009011;28;20065;-73
2021/04/15 04:28:08;;;;;;;7.78;0.95;;;30.10;33.10;;;;;;5009424;28;20617;-74
2021/04/15 04:30:50;;;;;;;4.82;0.70;;;30.20;34.00;;;;;;5003705;28;20129;-74
2021/04/15 04:33:21;;;;;;;4.70;1.23;;;30.20;33.60;;;;;;5001482;28;20034;-69
2021/04/15 04:35:50;;;;;;;4.93;1.08;;;30.30;34.70;;;;;;5003008;28;20017;-72
2021/04/15 04:38:21;;;;;;;5.40;0.65;;;30.50;35.00;;;;;;5000936;28;20038;-72
2021/04/15 04:40:54;;;;;;;5.82;0.90;;;30.40;34.40;;;;;;5003317;28;20107;-72
2021/04/15 04:43:32;;;;;;;2.15;0.60;;;30.30;32.60;;;;;;5008782;28;20030;-72
2021/04/15 04:46:23;;;;;;;5.35;1.15;;;30.20;34.40;;;;;;5006839;28;21495;-72
2021/04/15 04:49:14;;;;;;;4.43;0.85;;;30.50;33.70;;;;;;5000821;28;20480;-73
2021/04/15 04:51:59;;;;;;;7.93;0.98;;;30.20;33.40;;;;;;5005486;28;20025;-74
2021/04/15 04:54:27;;;;;;;2.13;0.80;;;29.60;32.80;;;;;;5004149;28;20468;-77
2021/04/15 04:57:12;;;;;;;6.20;0.65;;;29.50;35.60;;;;;;5004476;28;20030;-75
2021/04/15 04:59:44;;;;;;;3.58;1.10;;;29.10;34.40;;;;;;5006605;28;20041;-77
2021/04/15 05:02:13;;;;;;;4.10;0.70;;;29.10;34.50;;;;;;5005525;28;20065;-75
2021/04/15 05:04:43;;;;;;;3.33;0.60;;;29.30;33.30;;;;;;5005837;28;20026;-74
2021/04/15 05:07:25;;;;;;;4.88;0.70;;;29.30;32.90;;;;;;5002702;28;20057;-68
2021/04/15 05:09:53;;;;;;;4.55;1.15;;;29.10;33.30;;;;;;5002744;28;20093;-72
2021/04/15 05:12:23;;;;;;;5.25;1.00;;;29.30;34.20;;;;;;5003719;28;20151;-72
2021/04/15 05:14:56;;;;;;;2.85;0.82;;;29.30;34.00;;;;;;5004858;28;20369;-75
2021/04/15 05:17:35;;;;;;;4.35;0.57;;;29.20;34.90;;;;;;5000333;28;20107;-69
2021/04/15 05:20:07;;;;;;;6.95;1.05;;;29.40;34.80;;;;;;5005492;28;20053;-74
2021/04/15 05:22:48;;;;;;;2.03;0.50;;;29.40;34.50;;;;;;5000029;28;20361;-74
2021/04/15 05:25:25;;;;;;;5.88;0.95;;;29.20;35.60;;;;;;5001845;28;20034;-71
2021/04/15 05:27:53;;;;;;;4.30;0.75;;;29.00;34.50;;;;;;4990919;28;20053;-75
2021/04/15 05:30:56;;;;;;;4.35;0.70;;;28.70;36.00;;;;;;5000846;28;20083;-72
2021/04/15 05:33:26;;;;;;;2.42;0.55;;;28.50;36.30;;;;;;4981697;28;20057;-72
2021/04/15 05:36:31;;;;;;;2.17;0.63;;;28.30;35.90;;;;;;4999468;28;20055;-74
2021/04/15 05:39:01;;;;;;;3.33;0.50;;;28.20;36.70;;;;;;5000945;28;20034;-71
2021/04/15 05:42:05;;;;;;;6.30;1.25;;;28.00;34.60;;;;;;4996409;28;20369;-71
2021/04/15 05:44:50;;;;;;;3.47;0.88;;;27.90;36.00;;;;;;5004286;28;20034;-68
2021/04/15 05:47:30;;;;;;;6.03;0.80;;;27.70;34.90;;;;;;5003437;28;20415;-74
2021/04/15 05:50:30;;;;;;;4.38;0.60;;;27.60;37.90;;;;;;4999134;28;20049;-69
2021/04/15 05:53:17;;;;;;;9.73;1.30;;;27.50;38.30;;;;;;5001428;28;20029;-69
2021/04/15 05:55:50;;;;;;;7.53;0.70;;;27.30;38.60;;;;;;5005050;28;20038;-69
2021/04/15 05:58:36;;;;;;;5.65;0.80;;;27.10;38.80;;;;;;5006289;28;20014;-69
2021/04/15 06:01:17;;;;;;;5.13;1.33;;;26.90;39.00;;;;;;5011070;28;20095;-69
2021/04/15 06:03:58;;;;;;;4.35;0.85;;;26.90;40.10;;;;;;5005564;28;20044;-74
2021/04/15 06:06:38;;;;;;;8.55;0.88;;;26.80;39.50;;;;;;5000297;28;20029;-74
2021/04/15 06:09:08;;;;;;;3.65;0.57;;;26.60;39.00;;;;;;5001275;28;20065;-70
2021/04/15 06:11:53;;;;;;;3.15;0.60;;;26.60;40.00;;;;;;5001845;28;20108;-75
2021/04/15 06:14:24;;;;;;;4.30;0.60;;;26.80;40.10;;;;;;5003342;28;20524;-70
2021/04/15 06:17:40;;;;;;;4.63;1.00;;;27.20;39.30;;;;;;5002052;28;20406;-69
2021/04/15 06:20:15;;;;;;;7.10;1.15;;;27.20;39.40;;;;;;4972709;28;20377;-72
2021/04/15 06:22:44;;;;;;;;;;;26.90;38.20;;;;;;5005164;28;20103;-70
2021/04/15 06:25:23;;;;;;;3.67;0.73;;;26.70;39.30;;;;;;5002725;28;19910;-68
2021/04/15 06:27:51;;;;;;;5.80;0.90;;;26.40;39.20;;;;;;5003895;28;20029;-74
2021/04/15 06:30:21;;;;;;;2.75;0.90;;;26.40;40.40;;;;;;5008042;28;20057;-71
2021/04/15 06:33:07;;;;;;;4.25;1.00;;;26.50;39.60;;;;;;5007820;28;20030;-71
2021/04/15 06:35:36;;;;;;;7.03;0.82;;;26.50;38.80;;;;;;5005042;28;20057;-71
2021/04/15 06:38:12;;;;;;;4.85;0.50;;;26.40;38.60;;;;;;5006034;28;20113;-80
2021/04/15 06:41:22;;;;;;;4.05;0.73;;;26.30;38.30;;;;;;5005252;28;20551;-71
2021/04/15 06:44:11;;;;;;;2.78;0.68;;;26.20;38.90;;;;;;5006825;28;20507;-75
2021/04/15 06:47:14;;;;;;;4.97;1.10;;;26.10;41.00;;;;;;5007547;28;20200;-77
2021/04/15 06:50:08;;;;;;;5.00;1.00;;;26.00;40.70;;;;;;5004158;28;20033;-75
2021/04/15 06:53:06;;;;;;;8.93;0.70;;;25.80;42.20;;;;;;5003588;28;20029;-73
2021/04/15 06:55:45;;;;;;;4.72;0.95;;;25.60;41.90;;;;;;5002333;28;20030;-70
2021/04/15 06:58:28;;;;;;;5.30;0.60;;;25.50;42.10;;;;;;5004593;28;20030;-69
2021/04/15 07:01:40;;;;;;;3.85;0.80;;;25.40;41.80;;;;;;5004513;28;20534;-74
2021/04/15 07:04:23;;;;;;;4.45;0.75;;;25.30;41.60;;;;;;4987960;28;20057;-73
2021/04/15 07:07:00;;;;;;;5.82;0.60;;;25.20;42.40;;;;;;5006071;28;20026;-70
2021/04/15 07:09:58;;;;;;;4.85;1.02;;;25.10;43.50;;;;;;4999505;28;20033;-76
2021/04/15 07:12:52;;;;;;;6.63;0.85;;;25.00;42.90;;;;;;5005266;28;20022;-73
2021/04/15 07:15:31;;;;;;;5.13;0.70;;;24.90;44.50;;;;;;5007760;28;20464;-78
2021/04/15 07:18:12;;;;;;;6.63;1.38;;;24.80;44.20;;;;;;5006940;28;20026;-79
2021/04/15 07:21:16;;;;;;;10.88;1.20;;;24.70;44.50;;;;;;5003909;28;20050;-76
2021/04/15 07:24:16;;;;;;;4.90;0.85;;;24.60;44.10;;;;;;5006837;28;20021;-71
2021/04/15 07:26:56;;;;;;;8.30;1.30;;;24.50;44.30;;;;;;5004812;28;20029;-79
2021/04/15 07:29:40;;;;;;;9.80;1.80;;;24.40;45.20;;;;;;5011895;28;20029;-71
2021/04/15 07:32:33;;;;;;;7.05;0.98;;;24.30;45.20;;;;;;5007269;28;20033;-74
2021/04/15 07:35:12;;;;;;;6.15;1.20;;;24.30;45.70;;;;;;5005781;28;20496;-75
2021/04/15 07:38:16;;;;;;;8.15;1.88;;;24.10;46.10;;;;;;5005566;28;20095;-79
2021/04/15 07:40:52;;;;;;;8.05;1.77;;;24.00;46.60;;;;;;5007461;28;20038;-77
2021/04/15 07:43:59;;;;;;;8.48;1.02;;;23.90;48.60;;;;;;5004289;28;20429;-79
2021/04/15 07:46:35;;;;;;;8.40;1.23;;;23.70;47.50;;;;;;4975088;28;20035;-76
2021/04/15 07:49:20;;;;;;;6.85;1.25;;;23.60;47.90;;;;;;5011305;28;20026;-79
2021/04/15 07:51:56;;;;;;;5.13;1.17;;;23.50;49.50;;;;;;5020329;28;20053;-78
2021/04/15 07:54:51;;;;;;;10.25;4.80;;;23.40;49.40;;;;;;5007152;28;20100;-80
2021/04/15 07:57:21;;;;;;;9.95;3.83;;;23.20;49.80;;;;;;5006862;28;20040;-78
2021/04/15 08:00:13;;;;;;;8.45;3.65;;;23.10;50.70;;;;;;5003119;28;20026;-80
2021/04/15 08:02:58;;;;;;;9.60;3.65;;;23.10;51.00;;;;;;5007528;28;20479;-79
2021/04/15 08:06:02;;;;;;;7.25;2.85;;;23.00;51.60;;;;;;5008455;28;20033;-77
2021/04/15 08:08:41;;;;;;;5.03;1.30;;;22.90;51.40;;;;;;5007710;28;20033;-76
2021/04/15 08:11:39;;;;;;;7.03;1.75;;;22.80;49.40;;;;;;5006014;28;20033;-78
2021/04/15 08:14:15;;;;;;;2.65;1.23;;;22.70;50.50;;;;;;5008298;28;20042;-81
2021/04/15 08:17:19;;;;;;;5.93;1.27;;;22.60;51.00;;;;;;5005412;28;20531;-82
2021/04/15 08:20:34;;;;;;;6.60;1.20;;;22.50;50.40;;;;;;5008485;28;20069;-82
2021/04/15 08:23:12;;;;;;;3.90;0.82;;;22.40;51.00;;;;;;4963228;28;20148;-86
2021/04/15 08:25:58;;;;;;;4.78;1.02;;;22.30;54.30;;;;;;4965472;28;20023;-84
2021/04/15 08:28:47;;;;;;;3.97;1.77;;;22.30;55.40;;;;;;4995002;28;21200;-79
2021/04/15 08:31:19;;;;;;;5.22;0.95;;;22.20;54.70;;;;;;5008368;28;20026;-80
2021/04/15 08:34:02;;;;;;;4.35;1.33;;;22.20;54.90;;;;;;5010256;28;20033;-81
2021/04/15 08:36:36;;;;;;;5.82;1.40;;;22.10;54.80;;;;;;5008876;28;20897;-83
2021/04/15 08:39:30;;;;;;;4.78;1.45;;;22.10;53.00;;;;;;5008087;28;20021;-79
2021/04/15 08:42:06;;;;;;;4.57;1.30;;;22.10;52.40;;;;;;5006989;28;20030;-79
2021/04/15 08:44:42;;;;;;;3.72;1.15;;;22.00;54.00;;;;;;5025123;28;20100;-83
2021/04/15 08:47:31;;;;;;;10.02;2.05;;;22.00;54.20;;;;;;5011948;28;20030;-80
2021/04/15 08:50:08;;;;;;;9.13;2.03;;;22.00;53.60;;;;;;5009432;28;20029;-81
2021/04/15 08:52:53;;;;;;;7.53;2.25;;;22.00;52.20;;;;;;5013429;28;20033;-78
2021/04/15 08:55:26;;;;;;;7.87;1.67;;;22.00;53.00;;;;;;5006957;28;20386;-79
2021/04/15 08:58:24;;;;;;;10.45;3.40;;;22.00;52.30;;;;;;5007300;28;20103;-79
2021/04/15 09:01:09;;;;;;;14.68;8.57;;;21.90;52.50;;;;;;5005194;28;20109;-81
2021/04/15 09:04:00;;;;;;;13.98;10.60;;;21.90;52.90;;;;;;5009683;28;20113;-81
2021/04/15 09:06:56;;;;;;;16.90;10.38;;;21.80;53.30;;;;;;5007062;28;20030;-85
2021/04/15 09:09:49;;;;;;;9.07;5.82;;;21.80;52.50;;;;;;5005965;28;20116;-81
2021/04/15 09:13:03;;;;;;;11.77;3.45;;;21.70;52.10;;;;;;5000801;28;20496;-79
2021/04/15 09:15:52;;;;;;;7.10;1.58;;;21.70;51.70;;;;;;5007880;28;20030;-78
2021/04/15 09:18:24;;;;;;;5.82;1.13;;;21.60;50.90;;;;;;5005529;28;21680;-77
2021/04/15 09:21:21;;;;;;;3.72;1.25;;;21.60;50.60;;;;;;5005002;28;20046;-80
2021/04/15 09:24:07;;;;;;;2.95;0.60;;;21.60;50.40;;;;;;5007846;28;20028;-81
2021/04/15 09:27:15;;;;;;;7.35;1.00;;;21.50;51.20;;;;;;5010979;28;20448;-81
2021/04/15 09:30:07;;;;;;;6.15;1.50;;;21.50;50.50;;;;;;5007903;28;20026;-88
2021/04/15 09:33:00;;;;;;;6.22;1.70;;;21.40;50.40;;;;;;5008495;28;20357;-79
2021/04/15 09:36:06;;;;;;;7.32;2.75;;;21.40;50.40;;;;;;4991437;28;20042;-79
2021/04/15 09:38:47;;;;;;;8.07;1.63;;;21.40;50.20;;;;;;4998787;28;20053;-76
2021/04/15 09:41:52;;;;;;;5.72;1.50;;;21.30;50.40;;;;;;5012960;28;20069;-81
2021/04/15 09:44:32;;;;;;;4.95;1.48;;;21.30;50.50;;;;;;5009507;28;20032;-81
2021/04/15 09:47:17;;;;;;;4.15;1.02;;;21.30;50.60;;;;;;5011934;28;20042;-80
2021/04/15 09:50:05;;;;;;;9.20;1.00;;;21.30;50.90;;;;;;5011118;28;20030;-80
2021/04/15 09:53:09;;;;;;;4.40;1.13;;;21.20;51.30;;;;;;5009809;28;20085;-79
2021/04/15 09:55:40;;;;;;;4.00;1.35;;;21.10;51.50;;;;;;5004867;28;20400;-74
2021/04/15 09:58:28;;;;;;;5.75;1.02;;;21.10;51.40;;;;;;5005211;28;20029;-81
2021/04/15 10:01:04;;;;;;;4.75;0.93;;;21.10;51.70;;;;;;5011653;28;20105;-79
2021/04/15 10:03:46;;;;;;;5.63;1.13;;;21.10;52.20;;;;;;5005611;28;20030;-82
2021/04/15 10:06:26;;;;;;;3.30;0.90;;;21.00;51.80;;;;;;5006235;28;20431;-77
2021/04/15 10:08:59;;;;;;;3.03;0.68;;;20.90;51.90;;;;;;5008082;28;20389;-78
2021/04/15 10:11:53;;;;;;;6.72;0.75;;;20.80;51.50;;;;;;5006333;28;20025;-77
2021/04/15 10:14:39;;;;;;;7.68;1.00;;;20.80;52.10;;;;;;5008910;28;20107;-77
2021/04/15 10:17:34;;;;;;;2.70;0.63;;;20.70;53.00;;;;;;5010560;28;20034;-79
2021/04/15 10:20:22;;;;;;;3.03;0.60;;;20.60;53.10;;;;;;5010560;28;20045;-82
2021/04/15 10:23:11;;;;;;;4.38;0.90;;;20.60;53.40;;;;;;5008555;28;20045;-78
2021/04/15 10:25:55;;;;;;;3.28;1.13;;;20.50;53.90;;;;;;5008008;28;20026;-81
2021/04/15 10:28:40;;;;;;;4.47;0.85;;;20.50;54.80;;;;;;5005379;28;20030;-81
2021/04/15 10:31:26;;;;;;;1.40;0.60;;;20.50;54.80;;;;;;5007617;28;20068;-81
2021/04/15 10:34:17;;;;;;;2.43;0.50;;;20.40;54.10;;;;;;5007319;28;20447;-77
2021/04/15 10:37:07;;;;;;;4.10;0.75;;;20.40;54.30;;;;;;5007718;28;20502;-82
2021/04/15 10:39:52;;;;;;;7.18;1.00;;;20.50;54.20;;;;;;5013147;28;20156;-80
2021/04/15 10:42:38;;;;;;;3.58;0.88;;;20.40;53.80;;;;;;5013371;28;20515;-79
2021/04/15 10:45:26;;;;;;;3.85;0.70;;;20.30;53.20;;;;;;5009163;28;20034;-83
2021/04/15 10:48:15;;;;;;;4.10;1.08;;;20.30;53.30;;;;;;5007772;28;20133;-76
2021/04/15 10:51:17;;;;;;;5.13;0.80;;;20.30;53.60;;;;;;5008081;28;20329;-77
2021/04/15 10:53:54;;;;;;;8.32;1.00;;;20.30;54.00;;;;;;5007906;28;20041;-76
2021/04/15 10:56:27;;;;;;;4.28;0.90;;;20.20;52.10;;;;;;5008869;28;20033;-78
2021/04/15 10:59:03;;;;;;;6.72;1.80;;;20.20;52.50;;;;;;5015455;28;20026;-83
2021/04/15 11:01:42;;;;;;;6.25;1.02;;;20.20;52.90;;;;;;5009716;28;20058;-81
2021/04/15 11:04:18;;;;;;;7.30;1.13;;;20.20;51.80;;;;;;5012039;28;20088;-78
2021/04/15 11:07:05;;;;;;;8.43;1.25;;;20.20;51.50;;;;;;5006879;28;20025;-78
2021/04/15 11:09:58;;;;;;;7.25;1.17;;;20.20;52.10;;;;;;5011661;28;20104;-76
2021/04/15 11:12:32;;;;;;;3.63;0.70;;;20.20;51.90;;;;;;5014350;28;20037;-82
2021/04/15 11:15:06;;;;;;;3.25;1.00;;;20.20;52.40;;;;;;5010929;28;22017;-81
2021/04/15 11:17:38;;;;;;;4.07;1.20;;;20.10;53.00;;;;;;5016017;28;20112;-80
2021/04/15 11:20:29;;;;;;;4.57;1.13;;;20.00;53.10;;;;;;5011900;28;20029;-81
2021/04/15 11:23:05;;;;;;;3.30;1.27;;;20.10;53.00;;;;;;5013718;28;20049;-81
2021/04/15 11:25:50;;;;;;;6.32;1.60;;;20.10;53.00;;;;;;5013047;28;20030;-79
2021/04/15 11:28:23;;;;;;;4.05;1.52;;;20.00;52.60;;;;;;5009093;28;20062;-81
2021/04/15 11:31:14;;;;;;;5.90;1.25;;;20.00;52.50;;;;;;5008679;28;20061;-79
2021/04/15 11:33:51;;;;;;;4.65;1.27;;;19.90;53.10;;;;;;5005374;28;20491;-77
2021/04/15 11:36:26;;;;;;;24.25;4.68;;;19.90;52.70;;;;;;5005067;28;20040;-80
2021/04/15 11:39:21;;;;;;;10.18;3.28;;;19.90;52.80;;;;;;5008420;28;20480;-81
2021/04/15 11:41:52;;;;;;;20.42;5.28;;;19.80;52.90;;;;;;5007563;28;20045;-78
2021/04/15 11:44:55;;;;;;;48.67;8.07;;;19.80;53.00;;;;;;5013511;28;20034;-81
2021/04/15 11:47:26;;;;;;;17.15;3.30;;;19.80;53.20;;;;;;5009712;28;20033;-82
2021/04/15 11:50:05;;;;;;;7.90;2.15;;;19.70;53.10;;;;;;5005591;28;20489;-84
2021/04/15 11:52:35;;;;;;;12.07;1.88;;;19.70;53.20;;;;;;5006936;28;20026;-78
2021/04/15 11:55:27;;;;;;;6.43;1.77;;;19.70;53.60;;;;;;5006036;28;20060;-81
2021/04/15 11:58:02;;;;;;;12.25;2.00;;;19.70;53.10;;;;;;5008030;28;20026;-82
2021/04/15 12:00:32;;;;;;;7.78;1.33;;;19.60;53.20;;;;;;5009926;28;20061;-80
2021/04/15 12:02:59;;;;;;;12.23;2.25;;;19.60;53.20;;;;;;5003692;28;20103;-80
2021/04/15 12:05:37;;;;;;;14.95;1.90;;;19.60;53.50;;;;;;5004098;28;20417;-79
2021/04/15 12:08:13;;;;;;;5.25;1.55;;;19.50;53.50;;;;;;5008494;28;20441;-86
2021/04/15 12:11:21;;;;;;;6.30;2.35;;;19.50;53.60;;;;;;5005294;28;20029;-79
2021/04/15 12:13:50;;;;;;;12.35;2.78;;;19.50;53.90;;;;;;5000017;28;20037;-81
2021/04/15 12:16:53;;;;;;;10.75;2.15;;;19.40;54.30;;;;;;5008361;28;20025;-81
2021/04/15 12:19:32;;;;;;;13.13;3.10;;;19.40;54.20;;;;;;5003600;28;20025;-83
2021/04/15 12:22:25;;;;;;;23.98;3.30;;;19.40;54.20;;;;;;5006475;28;20026;-80
2021/04/15 12:25:23;;;;;;;9.32;2.53;;;19.40;54.40;;;;;;5004495;28;20034;-81
2021/04/15 12:28:16;;;;;;;14.35;3.15;;;19.40;54.10;;;;;;5008451;28;20101;-80
2021/04/15 12:30:43;;;;;;;11.85;2.90;;;19.40;54.10;;;;;;5006666;28;20105;-79
2021/04/15 12:33:28;;;;;;;10.07;2.22;;;19.40;54.00;;;;;;5002547;28;20499;-83
2021/04/15 12:36:12;;;;;;;9.98;2.10;;;19.30;53.90;;;;;;5004423;28;20033;-80
2021/04/15 12:39:11;;;;;;;7.05;2.80;;;19.30;54.20;;;;;;5004824;28;20120;-77
2021/04/15 12:41:39;;;;;;;10.77;1.80;;;19.30;54.10;;;;;;5000880;28;20520;-82
2021/04/15 12:44:29;;;;;;;10.77;2.65;;;19.30;54.80;;;;;;5002930;28;20038;-80
2021/04/15 12:47:01;;;;;;;11.95;2.63;;;19.30;54.60;;;;;;5008644;28;20018;-86
2021/04/15 12:49:36;;;;;;;6.38;2.28;;;19.20;54.60;;;;;;5006805;28;20065;-79
2021/04/15 12:52:12;;;;;;;6.22;1.65;;;19.20;54.60;;;;;;5007488;28;20034;-79
2021/04/15 12:54:44;;;;;;;4.32;1.65;;;19.20;55.00;;;;;;5005786;28;20030;-81
2021/04/15 12:57:16;;;;;;;11.70;2.33;;;19.10;55.20;;;;;;5006758;28;20489;-80
2021/04/15 12:59:47;;;;;;;5.35;2.05;;;19.20;55.90;;;;;;5004943;28;20098;-83
2021/04/15 13:02:28;;;;;;;4.80;1.90;;;19.10;56.00;;;;;;5004856;28;20045;-84
2021/04/15 13:05:21;;;;;;;6.85;2.88;;;19.00;55.70;;;;;;5005249;28;21607;-83
2021/04/15 13:07:49;;;;;;;9.65;2.80;;;18.90;56.40;;;;;;5004799;28;20034;-80
2021/04/15 13:10:20;;;;;;;9.73;3.47;;;18.80;56.60;;;;;;5004530;28;20037;-77
2021/04/15 13:12:52;;;;;;;7.25;3.25;;;18.80;57.10;;;;;;5002444;28;20029;-79
2021/04/15 13:15:25;;;;;;;8.13;3.50;;;18.80;58.10;;;;;;5005688;28;20096;-77
2021/04/15 13:17:56;;;;;;;12.80;4.35;;;18.80;57.80;;;;;;5008861;28;20030;-85
2021/04/15 13:20:23;;;;;;;8.70;2.83;;;18.70;59.50;;;;;;5007411;28;20030;-81
2021/04/15 13:23:31;;;;;;;4.10;2.08;;;18.70;58.00;;;;;;5007597;28;20041;-77
2021/04/15 13:26:01;;;;;;;8.35;2.30;;;18.70;58.70;;;;;;5006484;28;20899;-79
2021/04/15 13:28:49;;;;;;;10.23;3.92;;;18.70;59.20;;;;;;5005847;28;20088;-82
2021/04/15 13:31:40;;;;;;;8.55;2.40;;;18.60;59.60;;;;;;4992512;28;20038;-76
2021/04/15 13:34:20;;;;;;;4.63;2.80;;;18.50;61.30;;;;;;5003940;28;20034;-78
2021/04/15 13:36:49;;;;;;;6.75;1.85;;;18.40;61.00;;;;;;5004249;28;20589;-81
2021/04/15 13:39:35;;;;;;;9.85;2.08;;;18.40;60.00;;;;;;5003637;28;20030;-78
2021/04/15 13:42:10;;;;;;;8.02;2.25;;;18.40;59.80;;;;;;5003772;28;20037;-77
2021/04/15 13:44:49;;;;;;;11.02;2.80;;;18.30;59.80;;;;;;5007109;28;20044;-78
2021/04/15 13:47:44;;;;;;;6.57;1.98;;;18.30;59.90;;;;;;4996880;28;20046;-79
2021/04/15 13:50:13;;;;;;;6.38;2.00;;;18.20;60.00;;;;;;5003247;28;20560;-80
2021/04/15 13:52:41;;;;;;;6.25;1.90;;;18.20;59.80;;;;;;5004555;28;20120;-80
2021/04/15 13:55:30;;;;;;;4.68;2.33;;;18.20;60.10;;;;;;5003422;28;20155;-79
2021/04/15 13:57:58;;;;;;;8.30;2.78;;;18.20;60.20;;;;;;5005962;28;20025;-79
2021/04/15 14:00:47;;;;;;;5.75;2.33;;;18.20;61.20;;;;;;5018424;28;20730;-79